createdAt,value
2023-03-12T00:00:22.042Z,85.67
2023-03-12T00:03:10.243Z,85.65
2023-03-12T00:05:39.752Z,84.87
2023-03-12T00:08:07.830Z,84.63
2023-03-12T00:10:36.157Z,83.32
2023-03-12T00:13:03.537Z,83.92
2023-03-12T00:15:31.059Z,84.04
2023-03-12T00:17:58.342Z,83.74
2023-03-12T00:20:26.393Z,83.67
2023-03-12T00:22:53.632Z,83.73
2023-03-12T00:25:21.359Z,83.88
2023-03-12T00:27:49.027Z,83.14
2023-03-12T00:30:16.696Z,82.75
2023-03-12T00:32:44.123Z,82.84
2023-03-12T00:35:11.749Z,82.83
2023-03-12T00:37:39.885Z,83.17
2023-03-12T00:40:10.077Z,83.22
2023-03-12T00:42:37.391Z,83.17
2023-03-12T00:45:06.113Z,83.71
2023-03-12T00:47:33.349Z,83.66
2023-03-12T00:50:00.924Z,84.19
2023-03-12T00:52:28.259Z,84.39
2023-03-12T00:54:58.434Z,84.63
2023-03-12T00:57:25.969Z,84.65
2023-03-12T00:59:53.504Z,85.15
2023-03-12T01:02:20.942Z,85.28
2023-03-12T01:04:48.638Z,85.53
2023-03-12T01:07:15.973Z,85.71
2023-03-12T01:09:43.516Z,85.67
2023-03-12T01:12:10.791Z,85.58
2023-03-12T01:14:38.344Z,85.63
2023-03-12T01:17:05.769Z,86.33
2023-03-12T01:19:33.340Z,86.23
2023-03-12T01:22:00.676Z,86.11
2023-03-12T01:24:28.285Z,85.54
2023-03-12T01:26:56.628Z,85.61
2023-03-12T01:29:24.152Z,86.10
2023-03-12T01:31:52.397Z,86.34
2023-03-12T01:34:19.998Z,86.67
2023-03-12T01:36:47.868Z,87.22
2023-03-12T01:39:15.503Z,86.85
2023-03-12T01:41:42.832Z,86.95
2023-03-12T01:44:15.009Z,87.09
2023-03-12T01:46:46.004Z,87.10
2023-03-12T01:49:24.849Z,87.46
2023-03-12T01:52:10.830Z,87.55
2023-03-12T01:55:09.575Z,88.01
2023-03-12T01:57:47.350Z,88.11
2023-03-12T02:00:27.656Z,88.65
2023-03-12T02:03:00.623Z,88.83
2023-03-12T02:05:48.600Z,88.77
2023-03-12T02:08:18.336Z,88.72
2023-03-12T02:10:46.885Z,88.96
2023-03-12T02:13:14.753Z,88.92
2023-03-12T02:15:42.342Z,89.18
2023-03-12T02:18:16.572Z,89.22
2023-03-12T02:20:46.879Z,88.97
2023-03-12T02:23:42.841Z,89.44
2023-03-12T02:26:12.592Z,89.39
2023-03-12T02:28:45.838Z,89.11
2023-03-12T02:31:23.141Z,89.01
2023-03-12T02:33:50.557Z,88.82
2023-03-12T02:36:18.117Z,89.02
2023-03-12T02:38:52.149Z,88.93
2023-03-12T02:41:37.890Z,88.83
2023-03-12T02:44:19.832Z,88.87
2023-03-12T02:46:53.285Z,88.72
2023-03-12T02:49:23.836Z,88.90
2023-03-12T02:51:51.868Z,88.66
2023-03-12T02:54:21.834Z,88.32
2023-03-12T02:56:50.202Z,88.74
2023-03-12T02:59:21.057Z,88.71
2023-03-12T03:01:58.079Z,88.41
2023-03-12T03:04:29.525Z,88.48
2023-03-12T03:06:57.677Z,87.88
2023-03-12T03:09:25.347Z,87.77
2023-03-12T03:11:53.413Z,88.07
2023-03-12T03:14:20.798Z,87.61
2023-03-12T03:16:48.327Z,87.91
2023-03-12T03:19:15.637Z,88.02
2023-03-12T03:21:43.966Z,87.79
2023-03-12T03:24:11.987Z,87.65
2023-03-12T03:26:39.772Z,87.29
2023-03-12T03:29:07.189Z,86.99
2023-03-12T03:31:34.936Z,87.47
2023-03-12T03:34:02.282Z,86.98
2023-03-12T03:36:29.830Z,86.53
2023-03-12T03:38:57.878Z,86.68
2023-03-12T03:41:26.308Z,86.41
2023-03-12T03:43:58.750Z,86.18
2023-03-12T03:46:26.854Z,85.79
2023-03-12T03:48:54.232Z,85.38
2023-03-12T03:51:21.777Z,85.28
2023-03-12T03:53:49.151Z,85.02
2023-03-12T03:56:17.229Z,84.08
2023-03-12T03:58:44.850Z,83.55
2023-03-12T04:01:16.211Z,83.62
2023-03-12T04:03:43.671Z,83.72
2023-03-12T04:06:12.106Z,83.49
2023-03-12T04:08:40.418Z,83.34
2023-03-12T04:11:18.317Z,82.81
2023-03-12T04:13:46.975Z,83.03
2023-03-12T04:16:15.710Z,82.75
2023-03-12T04:18:43.644Z,82.71
2023-03-12T04:21:14.174Z,82.46
2023-03-12T04:23:41.827Z,82.44
2023-03-12T04:26:09.686Z,82.38
2023-03-12T04:28:38.445Z,82.33
2023-03-12T04:31:09.064Z,82.46
2023-03-12T04:33:39.003Z,82.63
2023-03-12T04:36:08.033Z,81.98
2023-03-12T04:38:35.785Z,81.91
2023-03-12T04:41:11.626Z,81.70
2023-03-12T04:43:39.095Z,81.17
2023-03-12T04:46:08.369Z,81.17
2023-03-12T04:48:36.671Z,81.16
2023-03-12T04:51:05.765Z,81.06
2023-03-12T04:53:33.664Z,81.54
2023-03-12T04:56:01.449Z,81.24
2023-03-12T04:58:28.822Z,81.37
2023-03-12T05:00:56.459Z,81.09
2023-03-12T05:03:23.934Z,81.18
2023-03-12T05:05:51.642Z,80.84
2023-03-12T05:08:18.964Z,80.37
2023-03-12T05:10:46.658Z,81.06
2023-03-12T05:13:20.845Z,80.90
2023-03-12T05:15:50.904Z,81.21
2023-03-12T05:18:20.636Z,80.93
2023-03-12T05:20:58.781Z,80.93
2023-03-12T05:23:26.131Z,81.25
2023-03-12T05:25:53.901Z,81.56
2023-03-12T05:28:21.726Z,81.25
2023-03-12T05:30:49.323Z,80.41
2023-03-12T05:33:16.628Z,80.70
2023-03-12T05:35:44.192Z,79.77
2023-03-12T05:38:12.020Z,79.43
2023-03-12T05:40:39.620Z,79.13
2023-03-12T05:43:06.959Z,78.51
2023-03-12T05:45:34.680Z,78.22
2023-03-12T05:48:01.926Z,77.91
2023-03-12T05:50:29.645Z,77.84
2023-03-12T05:52:57.039Z,76.93
2023-03-12T05:55:24.711Z,76.57
2023-03-12T05:57:52.341Z,76.57
2023-03-12T06:00:20.628Z,75.59
2023-03-12T06:02:47.885Z,75.65
2023-03-12T06:05:15.550Z,75.20
2023-03-12T06:07:42.921Z,74.28
2023-03-12T06:10:11.421Z,74.46
2023-03-12T06:12:38.825Z,73.85
2023-03-12T06:15:07.146Z,72.61
2023-03-12T06:17:34.518Z,72.34
2023-03-12T06:20:02.150Z,71.85
2023-03-12T06:22:30.099Z,72.16
2023-03-12T06:24:57.698Z,70.81
2023-03-12T06:27:25.124Z,70.92
2023-03-12T06:29:52.750Z,71.23
2023-03-12T06:32:20.360Z,71.32
2023-03-12T06:34:48.031Z,71.65
2023-03-12T06:37:15.448Z,71.94
2023-03-12T06:39:43.265Z,72.15
2023-03-12T06:42:12.979Z,71.96
2023-03-12T06:44:40.644Z,71.47
2023-03-12T06:47:07.998Z,70.92
2023-03-12T06:49:36.876Z,70.93
2023-03-12T06:52:05.171Z,69.19
2023-03-12T06:54:32.920Z,69.90
2023-03-12T06:57:00.256Z,69.00
2023-03-12T06:59:28.709Z,67.77
2023-03-12T07:01:56.081Z,68.62
2023-03-12T07:04:23.683Z,69.59
2023-03-12T07:06:51.520Z,68.30
2023-03-12T07:09:20.040Z,68.25
2023-03-12T07:11:47.547Z,67.41
2023-03-12T07:14:15.177Z,66.13
2023-03-12T07:16:42.511Z,66.15
2023-03-12T07:19:10.144Z,64.78
2023-03-12T07:21:37.477Z,65.68
2023-03-12T07:24:07.893Z,66.59
2023-03-12T07:26:36.106Z,66.94
2023-03-12T07:29:05.270Z,67.68
2023-03-12T07:31:32.619Z,66.86
2023-03-12T07:34:00.591Z,65.02
2023-03-12T07:36:28.385Z,63.00
2023-03-12T07:38:56.340Z,62.93
2023-03-12T07:41:23.746Z,61.38
2023-03-12T07:43:51.665Z,55.65
2023-03-12T07:46:18.942Z,46.75
2023-03-12T07:48:46.496Z,41.43
2023-03-12T07:51:14.317Z,38.15
2023-03-12T07:53:41.948Z,36.50
2023-03-12T07:56:09.326Z,33.80
2023-03-12T07:58:37.168Z,31.16
2023-03-12T08:01:06.713Z,30.03
2023-03-12T08:03:34.829Z,29.10
2023-03-12T08:06:04.745Z,28.89
2023-03-12T08:08:33.554Z,29.04
2023-03-12T08:11:03.594Z,26.73
2023-03-12T08:13:31.610Z,26.60
2023-03-12T08:15:59.033Z,26.16
2023-03-12T08:18:27.841Z,26.06
2023-03-12T08:20:55.402Z,24.32
2023-03-12T08:23:24.283Z,25.69
2023-03-12T08:25:52.526Z,24.80
2023-03-12T08:28:22.863Z,22.37
2023-03-12T08:30:56.266Z,23.44
2023-03-12T08:33:23.810Z,20.72
2023-03-12T08:35:51.484Z,20.00
2023-03-12T08:38:19.883Z,20.66
2023-03-12T08:40:47.443Z,19.89
2023-03-12T08:43:15.117Z,18.74
2023-03-12T08:45:42.486Z,18.98
2023-03-12T08:48:10.155Z,17.38
2023-03-12T08:50:37.536Z,16.63
2023-03-12T08:53:05.150Z,16.13
2023-03-12T08:55:32.553Z,15.75
2023-03-12T08:58:00.163Z,15.71
2023-03-12T09:00:27.596Z,15.94
2023-03-12T09:02:58.313Z,15.66
2023-03-12T09:05:26.313Z,15.47
2023-03-12T09:07:53.965Z,14.51
2023-03-12T09:10:21.241Z,15.58
2023-03-12T09:12:48.977Z,16.59
2023-03-12T09:15:16.557Z,15.82
2023-03-12T09:17:44.223Z,15.25
2023-03-12T09:20:14.272Z,13.86
2023-03-12T09:22:42.869Z,13.04
2023-03-12T09:25:11.765Z,12.83
2023-03-12T09:27:47.798Z,12.15
2023-03-12T09:30:21.884Z,12.94
2023-03-12T09:32:49.603Z,15.33
2023-03-12T09:35:17.279Z,14.89
2023-03-12T09:37:50.365Z,15.17
2023-03-12T09:40:23.848Z,12.83
2023-03-12T09:42:58.327Z,12.51
2023-03-12T09:45:31.656Z,14.87
2023-03-12T09:48:03.716Z,16.14
2023-03-12T09:50:33.552Z,17.70
2023-03-12T09:53:33.525Z,17.86
2023-03-12T09:56:10.303Z,18.54
2023-03-12T09:58:39.455Z,15.87
2023-03-12T10:01:25.034Z,14.49
2023-03-12T10:05:56.619Z,12.61
2023-03-12T10:08:45.629Z,13.38
2023-03-12T10:11:53.065Z,13.75
2023-03-12T10:14:32.509Z,15.21
2023-03-12T10:17:33.240Z,17.94
2023-03-12T10:20:40.984Z,14.05
2023-03-12T10:23:23.446Z,12.55
2023-03-12T10:26:15.373Z,11.07
2023-03-12T10:28:51.035Z,10.73
2023-03-12T10:31:29.681Z,10.77
2023-03-12T10:34:03.640Z,11.46
2023-03-12T10:36:39.881Z,11.68
2023-03-12T10:39:20.309Z,11.56
2023-03-12T10:41:49.669Z,13.80
2023-03-12T10:44:25.918Z,14.55
2023-03-12T10:47:18.918Z,18.27
2023-03-12T10:49:50.598Z,17.12
2023-03-12T10:52:22.527Z,17.50
2023-03-12T10:54:53.197Z,17.04
2023-03-12T10:57:21.299Z,19.58
2023-03-12T10:59:51.126Z,19.15
2023-03-12T11:02:34.665Z,17.21
2023-03-12T11:05:20.223Z,19.77
2023-03-12T11:07:48.046Z,22.90
2023-03-12T11:10:27.541Z,24.34
2023-03-12T11:13:01.502Z,24.68
2023-03-12T11:15:41.204Z,20.93
2023-03-12T11:18:19.497Z,19.28
2023-03-12T11:20:49.115Z,17.23
2023-03-12T11:23:31.105Z,17.52
2023-03-12T11:26:05.366Z,13.96
2023-03-12T11:28:48.446Z,15.90
2023-03-12T11:31:47.000Z,16.12
2023-03-12T11:34:24.812Z,12.90
2023-03-12T11:37:27.357Z,10.61
2023-03-12T11:40:17.030Z,9.41
2023-03-12T11:42:59.165Z,9.20
2023-03-12T11:45:47.596Z,9.26
2023-03-12T11:48:33.154Z,9.05
2023-03-12T11:51:19.030Z,8.08
2023-03-12T11:54:30.662Z,8.49
2023-03-12T11:57:45.347Z,10.57
2023-03-12T12:00:20.579Z,14.57
2023-03-12T12:03:39.356Z,14.61
2023-03-12T12:06:23.083Z,12.67
2023-03-12T12:09:30.341Z,10.51
2023-03-12T12:12:40.635Z,10.00
2023-03-12T12:15:43.627Z,11.49
2023-03-12T12:18:36.733Z,13.60
2023-03-12T12:21:39.981Z,13.08
2023-03-12T12:24:35.036Z,14.59
2023-03-12T12:27:18.044Z,17.38
2023-03-12T12:30:14.818Z,14.74
2023-03-12T12:33:41.301Z,16.72
2023-03-12T12:36:14.411Z,12.00
2023-03-12T12:38:49.866Z,10.83
2023-03-12T12:41:25.152Z,11.42
2023-03-12T12:44:14.478Z,12.31
2023-03-12T12:46:56.713Z,9.75
2023-03-12T12:49:31.986Z,10.54
2023-03-12T12:52:07.577Z,11.82
2023-03-12T12:55:22.978Z,13.52
2023-03-12T12:58:01.228Z,15.18
2023-03-12T13:00:47.243Z,14.05
2023-03-12T13:03:22.191Z,13.27
2023-03-12T13:05:52.890Z,12.97
2023-03-12T13:08:39.646Z,12.21
2023-03-12T13:11:50.544Z,12.34
2023-03-12T13:14:36.571Z,13.96
2023-03-12T13:17:31.395Z,15.07
2023-03-12T13:20:11.152Z,16.99
2023-03-12T13:22:52.139Z,18.24
2023-03-12T13:25:49.576Z,19.55
2023-03-12T13:28:35.423Z,20.39
2023-03-12T13:31:24.054Z,21.74
2023-03-12T13:34:13.985Z,21.79
2023-03-12T13:36:44.822Z,23.07
2023-03-12T13:39:36.740Z,21.42
2023-03-12T13:42:23.230Z,21.37
2023-03-12T13:44:53.470Z,22.73
2023-03-12T13:47:30.444Z,20.38
2023-03-12T13:50:15.355Z,22.05
2023-03-12T13:53:20.343Z,23.30
2023-03-12T13:56:05.565Z,23.93
2023-03-12T13:59:00.025Z,24.69
2023-03-12T14:02:01.983Z,26.03
2023-03-12T14:04:40.936Z,25.74
2023-03-12T14:07:35.463Z,23.72
2023-03-12T14:10:16.378Z,21.34
2023-03-12T14:13:24.528Z,22.18
2023-03-12T14:16:16.394Z,22.07
2023-03-12T14:18:47.072Z,22.93
2023-03-12T14:21:17.781Z,24.22
2023-03-12T14:24:00.630Z,24.93
2023-03-12T14:26:36.427Z,25.56
2023-03-12T14:29:29.397Z,26.85
2023-03-12T14:32:03.898Z,27.43
2023-03-12T14:34:41.897Z,27.36
2023-03-12T14:37:25.186Z,28.51
2023-03-12T14:40:00.740Z,28.55
2023-03-12T14:42:36.387Z,29.25
2023-03-12T14:45:14.262Z,29.56
2023-03-12T14:47:54.962Z,29.76
2023-03-12T14:50:41.119Z,31.31
2023-03-12T14:53:24.751Z,30.84
2023-03-12T14:56:10.819Z,32.51
2023-03-12T14:58:47.188Z,32.72
2023-03-12T15:01:30.132Z,33.22
2023-03-12T15:04:05.445Z,34.06
2023-03-12T15:06:44.556Z,33.95
2023-03-12T15:09:34.567Z,34.54
2023-03-12T15:12:08.950Z,35.03
2023-03-12T15:14:42.457Z,34.87
2023-03-12T15:17:18.627Z,36.01
2023-03-12T15:19:47.896Z,36.35
2023-03-12T15:22:21.388Z,36.87
2023-03-12T15:24:49.111Z,37.32
2023-03-12T15:27:32.339Z,37.51
2023-03-12T15:30:21.293Z,38.15
2023-03-12T15:33:16.580Z,38.31
2023-03-12T15:36:19.521Z,38.41
2023-03-12T15:38:52.687Z,38.63
2023-03-12T15:41:34.788Z,38.19
2023-03-12T15:44:03.115Z,38.24
2023-03-12T15:46:30.821Z,37.90
2023-03-12T15:49:00.911Z,38.55
2023-03-12T15:51:38.151Z,38.90
2023-03-12T15:54:14.698Z,39.23
2023-03-12T15:56:42.213Z,39.10
2023-03-12T15:59:15.924Z,39.62
2023-03-12T16:01:50.232Z,39.56
2023-03-12T16:04:18.600Z,39.82
2023-03-12T16:06:49.201Z,40.45
2023-03-12T16:09:24.677Z,40.99
2023-03-12T16:11:54.772Z,41.79
2023-03-12T16:14:34.678Z,41.71
2023-03-12T16:17:02.108Z,41.51
2023-03-12T16:19:33.786Z,41.05
2023-03-12T16:22:01.149Z,41.17
2023-03-12T16:24:28.728Z,41.21
2023-03-12T16:26:58.894Z,41.38
2023-03-12T16:29:39.006Z,41.96
2023-03-12T16:32:15.956Z,42.70
2023-03-12T16:34:45.370Z,43.17
2023-03-12T16:37:13.768Z,42.39
2023-03-12T16:39:43.330Z,42.86
2023-03-12T16:42:18.136Z,42.54
2023-03-12T16:44:46.918Z,42.87
2023-03-12T16:47:14.953Z,42.80
2023-03-12T16:49:44.709Z,43.12
2023-03-12T16:52:31.571Z,43.30
2023-03-12T16:54:59.225Z,43.61
2023-03-12T16:57:40.131Z,43.60
2023-03-12T17:00:14.254Z,43.47
2023-03-12T17:02:41.673Z,44.15
2023-03-12T17:05:09.982Z,44.30
2023-03-12T17:07:37.452Z,45.18
2023-03-12T17:10:07.139Z,44.98
2023-03-12T17:12:45.181Z,44.73
2023-03-12T17:15:18.994Z,45.36
2023-03-12T17:17:48.199Z,45.86
2023-03-12T17:20:19.623Z,46.41
2023-03-12T17:22:47.418Z,46.47
2023-03-12T17:25:30.122Z,46.68
2023-03-12T17:27:58.252Z,46.72
2023-03-12T17:30:28.730Z,46.66
2023-03-12T17:33:10.983Z,47.29
2023-03-12T17:35:40.068Z,47.59
2023-03-12T17:38:08.670Z,47.16
2023-03-12T17:40:42.258Z,47.54
2023-03-12T17:43:10.012Z,47.92
2023-03-12T17:45:37.746Z,48.43
2023-03-12T17:48:05.260Z,48.74
2023-03-12T17:50:32.840Z,48.83
2023-03-12T17:53:00.129Z,48.62
2023-03-12T17:55:27.744Z,48.32
2023-03-12T17:57:55.257Z,48.32
2023-03-12T18:00:23.337Z,48.58
2023-03-12T18:02:51.101Z,48.25
2023-03-12T18:05:18.908Z,48.46
2023-03-12T18:07:48.819Z,48.11
2023-03-12T18:10:17.139Z,47.96
2023-03-12T18:12:44.871Z,47.57
2023-03-12T18:15:14.899Z,48.00
2023-03-12T18:17:49.773Z,47.86
2023-03-12T18:20:28.869Z,47.28
2023-03-12T18:23:03.391Z,47.09
2023-03-12T18:25:31.133Z,47.66
2023-03-12T18:27:58.424Z,46.82
2023-03-12T18:30:26.319Z,46.43
2023-03-12T18:32:53.632Z,47.10
2023-03-12T18:35:22.335Z,45.98
2023-03-12T18:37:51.985Z,46.37
2023-03-12T18:40:19.747Z,46.37
2023-03-12T18:42:47.308Z,46.48
2023-03-12T18:45:15.077Z,46.52
2023-03-12T18:47:45.067Z,46.52
2023-03-12T18:50:13.597Z,46.48
2023-03-12T18:52:40.962Z,46.76
2023-03-12T18:55:15.246Z,46.84
2023-03-12T18:57:44.034Z,46.77
2023-03-12T19:00:16.062Z,46.30
2023-03-12T19:02:47.261Z,46.33
2023-03-12T19:05:16.219Z,46.43
2023-03-12T19:07:43.865Z,45.83
2023-03-12T19:10:12.720Z,46.35
2023-03-12T19:12:51.653Z,45.96
2023-03-12T19:15:24.099Z,45.88
2023-03-12T19:17:51.996Z,46.33
2023-03-12T19:20:20.233Z,46.55
2023-03-12T19:22:47.614Z,47.13
2023-03-12T19:25:15.953Z,46.56
2023-03-12T19:27:43.237Z,46.43
2023-03-12T19:30:11.994Z,46.73
2023-03-12T19:32:43.720Z,46.81
2023-03-12T19:35:14.842Z,47.03
2023-03-12T19:37:42.891Z,46.97
2023-03-12T19:40:13.451Z,47.64
2023-03-12T19:42:40.855Z,47.93
2023-03-12T19:45:09.743Z,47.65
2023-03-12T19:47:37.066Z,47.64
2023-03-12T19:50:05.322Z,47.79
2023-03-12T19:52:32.681Z,47.64
2023-03-12T19:55:07.855Z,47.97
2023-03-12T19:57:35.243Z,47.80
2023-03-12T20:00:06.833Z,48.04
2023-03-12T20:02:34.189Z,47.56
2023-03-12T20:05:02.470Z,47.75
2023-03-12T20:07:29.996Z,47.93
2023-03-12T20:09:57.849Z,48.05
2023-03-12T20:12:25.419Z,47.96
2023-03-12T20:14:53.119Z,48.71
2023-03-12T20:17:20.516Z,48.41
2023-03-12T20:19:48.117Z,48.23
2023-03-12T20:22:15.540Z,48.51
2023-03-12T20:24:43.233Z,48.65
2023-03-12T20:27:10.941Z,48.50
2023-03-12T20:29:38.747Z,48.40
2023-03-12T20:32:06.243Z,48.60
2023-03-12T20:34:33.911Z,48.57
2023-03-12T20:37:01.246Z,49.03
2023-03-12T20:39:28.913Z,49.14
2023-03-12T20:41:56.286Z,48.76
2023-03-12T20:44:24.168Z,48.85
2023-03-12T20:46:51.485Z,49.24
2023-03-12T20:49:19.220Z,48.68
2023-03-12T20:51:46.604Z,48.83
2023-03-12T20:54:14.332Z,49.15
2023-03-12T20:56:43.838Z,48.74
2023-03-12T20:59:12.733Z,48.48
2023-03-12T21:01:40.175Z,49.08
2023-03-12T21:04:07.940Z,49.16
2023-03-12T21:06:35.314Z,49.62
2023-03-12T21:09:04.280Z,49.51
2023-03-12T21:11:31.616Z,49.79
2023-03-12T21:13:59.361Z,49.60
2023-03-12T21:16:26.727Z,49.15
2023-03-12T21:18:58.210Z,48.89
2023-03-12T21:21:25.761Z,49.24
2023-03-12T21:23:53.423Z,49.07
2023-03-12T21:26:20.744Z,49.31
2023-03-12T21:28:48.330Z,49.40
2023-03-12T21:31:17.792Z,49.63
2023-03-12T21:33:45.684Z,49.06
2023-03-12T21:36:14.987Z,49.82
2023-03-12T21:38:43.237Z,49.70
2023-03-12T21:41:16.817Z,49.57
2023-03-12T21:43:46.561Z,49.62
2023-03-12T21:46:20.645Z,49.45
2023-03-12T21:48:48.726Z,49.55
2023-03-12T21:51:18.175Z,49.79
2023-03-12T21:53:45.861Z,49.63
2023-03-12T21:56:14.378Z,49.63
2023-03-12T21:58:42.055Z,49.77
2023-03-12T22:01:11.979Z,50.20
2023-03-12T22:03:42.212Z,50.67
2023-03-12T22:06:10.822Z,50.49
2023-03-12T22:08:39.461Z,50.69
2023-03-12T22:11:08.975Z,50.51
2023-03-12T22:13:36.884Z,51.27
2023-03-12T22:16:08.388Z,50.97
2023-03-12T22:18:46.704Z,51.34
2023-03-12T22:21:21.857Z,51.28
2023-03-12T22:23:52.513Z,51.60
2023-03-12T22:26:23.134Z,51.47
2023-03-12T22:28:57.513Z,52.14
2023-03-12T22:31:28.028Z,52.36
2023-03-12T22:33:57.069Z,52.39
2023-03-12T22:36:24.732Z,52.90
2023-03-12T22:38:52.641Z,52.74
2023-03-12T22:41:25.636Z,53.50
2023-03-12T22:43:57.093Z,53.80
2023-03-12T22:46:26.133Z,54.15
2023-03-12T22:48:57.688Z,54.80
2023-03-12T22:51:26.683Z,55.32
2023-03-12T22:53:54.279Z,56.38
2023-03-12T22:56:22.585Z,56.42
2023-03-12T22:58:51.412Z,56.94
2023-03-12T23:01:22.321Z,57.24
2023-03-12T23:03:51.093Z,57.79
2023-03-12T23:06:24.079Z,57.86
2023-03-12T23:08:53.062Z,58.54
2023-03-12T23:11:20.963Z,58.66
2023-03-12T23:13:49.857Z,59.48
2023-03-12T23:16:24.308Z,59.82
2023-03-12T23:18:52.265Z,60.28
2023-03-12T23:21:24.290Z,60.92
2023-03-12T23:23:52.349Z,61.08
2023-03-12T23:26:26.930Z,61.79
2023-03-12T23:28:59.130Z,62.53
2023-03-12T23:31:29.004Z,63.03
2023-03-12T23:33:58.548Z,63.26
2023-03-12T23:36:26.414Z,64.29
2023-03-12T23:38:54.113Z,64.55
2023-03-12T23:41:25.203Z,65.11
2023-03-12T23:43:53.438Z,65.36
2023-03-12T23:46:20.995Z,65.69
2023-03-12T23:48:49.689Z,66.00
2023-03-12T23:51:27.952Z,66.09
2023-03-12T23:53:59.726Z,66.56
2023-03-12T23:56:33.865Z,66.26
2023-03-12T23:59:01.925Z,66.65
